createdAt,value
2023-02-25T00:01:10.018Z,6.69
2023-02-25T00:06:18.255Z,6.64
2023-02-25T00:11:30.104Z,6.58
2023-02-25T00:16:37.907Z,6.54
2023-02-25T00:21:45.807Z,6.50
2023-02-25T00:26:53.281Z,6.49
2023-02-25T00:32:02.320Z,6.47
2023-02-25T00:37:10.683Z,6.43
2023-02-25T00:42:19.860Z,6.39
2023-02-25T00:47:27.719Z,6.30
2023-02-25T00:52:36.035Z,6.09
2023-02-25T00:57:44.443Z,5.89
2023-02-25T01:02:51.924Z,5.70
2023-02-25T01:07:59.749Z,5.53
2023-02-25T01:13:08.005Z,5.40
2023-02-25T01:18:15.399Z,5.37
2023-02-25T01:23:23.765Z,5.37
2023-02-25T01:28:31.624Z,5.34
2023-02-25T01:33:39.283Z,5.29
2023-02-25T01:38:47.081Z,5.25
2023-02-25T01:44:09.400Z,5.24
2023-02-25T01:49:22.200Z,5.24
2023-02-25T01:54:31.142Z,5.18
2023-02-25T01:59:40.409Z,5.15
2023-02-25T02:04:50.322Z,5.15
2023-02-25T02:09:57.747Z,5.13
2023-02-25T02:15:09.391Z,5.08
2023-02-25T02:20:22.245Z,4.98
2023-02-25T02:28:57.981Z,4.95
2023-02-25T02:34:16.886Z,4.87
2023-02-25T02:39:34.092Z,4.84
2023-02-25T02:44:51.221Z,4.77
2023-02-25T02:49:59.583Z,4.76
2023-02-25T02:55:14.087Z,4.75
2023-02-25T03:00:26.463Z,4.72
2023-02-25T03:05:36.467Z,4.67
2023-02-25T03:10:45.066Z,4.64
2023-02-25T03:15:53.989Z,4.60
2023-02-25T03:21:05.167Z,4.58
2023-02-25T03:26:20.638Z,4.60
2023-02-25T03:31:36.721Z,4.62
2023-02-25T03:36:52.029Z,4.63
2023-02-25T03:42:04.206Z,4.61
2023-02-25T03:47:13.357Z,4.62
2023-02-25T03:52:24.587Z,4.53
2023-02-25T03:57:39.600Z,4.36
2023-02-25T04:02:49.316Z,4.15
2023-02-25T04:07:57.814Z,3.95
2023-02-25T04:13:06.363Z,3.73
2023-02-25T04:18:14.644Z,3.51
2023-02-25T04:23:22.041Z,3.34
2023-02-25T04:28:30.261Z,3.20
2023-02-25T04:33:37.935Z,3.09
2023-02-25T04:38:46.215Z,2.99
2023-02-25T04:43:54.290Z,2.88
2023-02-25T04:49:02.774Z,2.81
2023-02-25T04:54:10.476Z,2.75
2023-02-25T04:59:19.268Z,2.69
2023-02-25T05:04:26.728Z,2.63
2023-02-25T05:09:35.259Z,2.61
2023-02-25T05:14:43.314Z,2.62
2023-02-25T05:19:51.027Z,2.55
2023-02-25T05:24:58.825Z,2.43
2023-02-25T05:30:07.042Z,2.36
2023-02-25T05:35:14.914Z,2.32
2023-02-25T05:40:23.072Z,2.30
2023-02-25T05:45:32.156Z,2.31
2023-02-25T05:50:41.913Z,2.28
2023-02-25T05:55:50.510Z,2.26
2023-02-25T06:00:58.918Z,2.22
2023-02-25T06:06:08.336Z,2.22
2023-02-25T06:11:18.629Z,2.26
2023-02-25T06:16:32.401Z,2.29
2023-02-25T06:21:40.740Z,2.28
2023-02-25T06:26:48.580Z,2.28
2023-02-25T06:31:56.427Z,2.23
2023-02-25T06:37:04.055Z,2.17
2023-02-25T06:42:11.751Z,2.18
2023-02-25T06:47:19.278Z,2.24
2023-02-25T06:52:27.039Z,2.33
2023-02-25T06:57:34.937Z,2.43
2023-02-25T07:02:42.529Z,2.53
2023-02-25T07:07:50.008Z,2.63
2023-02-25T07:12:57.787Z,2.72
2023-02-25T07:18:06.657Z,2.76
2023-02-25T07:23:14.269Z,2.81
2023-02-25T07:28:22.527Z,2.88
2023-02-25T07:33:31.110Z,2.92
2023-02-25T07:38:39.329Z,2.97
2023-02-25T07:43:46.750Z,3.08
2023-02-25T07:48:54.899Z,3.23
2023-02-25T07:54:02.690Z,3.43
2023-02-25T07:59:11.911Z,3.61
2023-02-25T08:04:21.290Z,3.79
2023-02-25T08:09:29.011Z,3.89
2023-02-25T08:14:36.412Z,3.94
2023-02-25T08:19:43.811Z,4.07
2023-02-25T08:24:52.155Z,4.25
2023-02-25T08:30:00.005Z,4.46
2023-02-25T08:35:08.384Z,4.67
2023-02-25T08:40:18.505Z,4.77
2023-02-25T08:45:27.098Z,4.76
2023-02-25T08:50:34.988Z,4.65
2023-02-25T08:55:42.967Z,4.52
2023-02-25T09:00:52.318Z,4.45
2023-02-25T09:06:01.680Z,4.43
2023-02-25T09:11:10.091Z,4.59
2023-02-25T09:16:18.200Z,4.69
2023-02-25T09:21:26.154Z,4.69
2023-02-25T09:26:34.450Z,4.74
2023-02-25T09:31:41.980Z,4.90
2023-02-25T09:36:50.200Z,5.13
2023-02-25T09:42:03.860Z,5.18
2023-02-25T09:47:19.707Z,4.68
2023-02-25T09:52:32.454Z,3.89
2023-02-25T09:57:44.146Z,3.48
2023-02-25T10:02:57.306Z,3.48
2023-02-25T10:08:19.321Z,3.78
2023-02-25T10:13:36.535Z,4.08
2023-02-25T10:18:51.377Z,4.20
2023-02-25T10:28:21.436Z,4.37
2023-02-25T10:33:37.327Z,4.47
2023-02-25T10:38:47.496Z,4.57
2023-02-25T10:43:56.457Z,4.67
2023-02-25T10:49:16.397Z,4.80
2023-02-25T10:54:26.560Z,5.01
2023-02-25T10:59:40.520Z,5.13
2023-02-25T11:04:48.815Z,5.20
2023-02-25T11:10:15.498Z,5.20
2023-02-25T11:15:50.035Z,5.09
2023-02-25T11:21:00.789Z,4.92
2023-02-25T11:26:09.795Z,4.94
2023-02-25T11:31:21.897Z,4.90
2023-02-25T11:36:35.186Z,4.67
2023-02-25T11:41:45.251Z,4.44
2023-02-25T11:47:00.085Z,4.23
2023-02-25T11:52:15.974Z,3.99
2023-02-25T11:57:36.435Z,3.63
2023-02-25T12:02:57.031Z,3.39
2023-02-25T12:08:33.349Z,3.25
2023-02-25T12:14:10.188Z,3.23
2023-02-25T12:19:54.224Z,3.33
2023-02-25T12:25:12.513Z,3.57
2023-02-25T12:30:52.757Z,3.86
2023-02-25T12:36:09.982Z,4.11
2023-02-25T12:41:39.644Z,4.16
2023-02-25T12:47:02.961Z,4.04
2023-02-25T12:52:27.576Z,3.80
2023-02-25T12:57:50.319Z,3.61
2023-02-25T13:03:21.488Z,3.62
2023-02-25T13:08:40.462Z,3.48
2023-02-25T13:14:02.466Z,3.43
2023-02-25T13:19:33.850Z,3.39
2023-02-25T13:24:56.833Z,3.31
2023-02-25T13:30:22.602Z,3.24
2023-02-25T13:35:41.222Z,3.11
2023-02-25T13:40:57.395Z,3.01
2023-02-25T13:46:12.200Z,3.06
2023-02-25T13:51:37.551Z,3.18
2023-02-25T13:57:00.438Z,3.21
2023-02-25T14:02:27.133Z,3.17
2023-02-25T14:07:57.053Z,3.12
2023-02-25T14:13:22.044Z,2.97
2023-02-25T14:18:54.051Z,2.60
2023-02-25T14:24:07.628Z,2.23
2023-02-25T14:29:29.523Z,2.09
2023-02-25T14:34:56.187Z,2.13
2023-02-25T14:40:27.433Z,2.27
2023-02-25T14:45:39.361Z,2.42
2023-02-25T14:50:52.583Z,2.51
2023-02-25T14:56:19.515Z,2.58
2023-02-25T15:01:55.736Z,2.61
2023-02-25T15:07:16.743Z,2.61
2023-02-25T15:12:34.994Z,2.61
2023-02-25T15:18:12.954Z,2.68
2023-02-25T15:23:20.437Z,2.74
2023-02-25T15:28:40.224Z,2.72
2023-02-25T15:33:49.616Z,2.66
2023-02-25T15:38:58.892Z,2.61
2023-02-25T15:44:41.041Z,2.61
2023-02-25T15:49:50.547Z,2.60
2023-02-25T15:55:22.247Z,2.55
2023-02-25T16:00:57.481Z,2.51
2023-02-25T16:06:08.159Z,2.40
2023-02-25T16:11:26.671Z,2.31
2023-02-25T16:16:36.797Z,2.24
2023-02-25T16:21:49.937Z,2.17
2023-02-25T16:27:03.283Z,2.11
2023-02-25T16:32:24.576Z,2.08
2023-02-25T16:37:40.039Z,2.08
2023-02-25T16:42:48.669Z,2.09
2023-02-25T16:48:02.854Z,2.10
2023-02-25T16:53:20.720Z,2.11
2023-02-25T16:58:30.847Z,2.10
2023-02-25T17:03:46.837Z,2.03
2023-02-25T17:08:54.520Z,1.99
2023-02-25T17:14:06.838Z,1.97
2023-02-25T17:19:19.435Z,1.94
2023-02-25T17:24:31.244Z,1.89
2023-02-25T17:29:40.248Z,1.87
2023-02-25T17:34:48.211Z,1.87
2023-02-25T17:39:56.434Z,1.84
2023-02-25T17:45:05.250Z,1.80
2023-02-25T17:50:31.301Z,1.75
2023-02-25T17:55:38.523Z,1.72
2023-02-25T18:00:56.588Z,1.70
2023-02-25T18:06:04.512Z,1.66
2023-02-25T18:11:26.298Z,1.65
2023-02-25T18:16:40.563Z,1.65
2023-02-25T18:21:48.022Z,1.65
2023-02-25T18:27:27.620Z,1.63
2023-02-25T18:32:35.390Z,1.64
2023-02-25T18:37:45.031Z,1.63
2023-02-25T18:42:52.335Z,1.60
2023-02-25T18:48:01.035Z,1.60
2023-02-25T18:53:08.620Z,1.61
2023-02-25T18:58:18.858Z,1.61
2023-02-25T19:03:30.887Z,1.63
2023-02-25T19:08:39.008Z,1.62
2023-02-25T19:24:36.911Z,1.62
2023-02-25T19:29:45.315Z,1.57
2023-02-25T19:34:53.314Z,1.55
2023-02-25T19:40:00.414Z,1.55
2023-02-25T19:45:08.259Z,1.53
2023-02-25T19:50:17.542Z,1.50
2023-02-25T19:55:25.289Z,1.47
2023-02-25T20:00:33.121Z,1.44
2023-02-25T20:05:40.506Z,1.40
2023-02-25T20:10:47.563Z,1.37
2023-02-25T20:16:00.796Z,1.35
2023-02-25T20:21:10.232Z,1.30
2023-02-25T20:26:20.703Z,1.22
2023-02-25T20:31:29.623Z,1.17
2023-02-25T20:36:43.328Z,1.14
2023-02-25T20:41:51.417Z,1.09
2023-02-25T20:47:00.383Z,1.06
2023-02-25T20:52:11.161Z,1.02
2023-02-25T20:57:21.342Z,1.02
2023-02-25T21:02:28.586Z,1.04
2023-02-25T21:07:35.815Z,1.03
2023-02-25T21:12:41.990Z,1.02
2023-02-25T21:17:49.474Z,0.98
2023-02-25T21:22:55.013Z,0.92
2023-02-25T21:28:02.594Z,0.92
2023-02-25T21:33:10.138Z,0.93
2023-02-25T21:38:17.316Z,0.95
2023-02-25T21:43:24.304Z,0.96
2023-02-25T21:48:32.636Z,0.95
2023-02-25T21:53:40.405Z,0.92
2023-02-25T21:58:48.388Z,0.91
2023-02-25T22:03:56.479Z,0.92
2023-02-25T22:09:04.439Z,0.91
2023-02-25T22:14:13.497Z,0.87
2023-02-25T22:19:20.655Z,0.83
2023-02-25T22:24:26.319Z,0.79
2023-02-25T22:29:35.103Z,0.80
2023-02-25T22:34:47.293Z,0.79
2023-02-25T22:39:55.044Z,0.78
2023-02-25T22:45:02.521Z,0.78
2023-02-25T22:50:11.991Z,0.80
2023-02-25T22:55:20.149Z,0.81
2023-02-25T23:00:35.396Z,0.81
2023-02-25T23:05:42.817Z,0.82
2023-02-25T23:10:51.564Z,0.87
2023-02-25T23:16:04.074Z,0.94
2023-02-25T23:21:16.524Z,0.95
2023-02-25T23:26:27.103Z,0.94
2023-02-25T23:31:36.677Z,0.91
2023-02-25T23:36:45.472Z,0.91
2023-02-25T23:41:52.886Z,0.93
2023-02-25T23:46:58.593Z,0.94
2023-02-25T23:52:07.010Z,0.92
2023-02-25T23:57:14.280Z,0.90
